Terminal Aerodrome Forecast
Issued by NWS Grand Forks, ND

Home | Current Version | Previous Version | Text Only | Print | Product List | Glossary Off
Versions: 1 2 3 4 5 6 7 8 9 10 11 12 13 14 15 16 17 18 19 20 21 22

000
FTUS43 KFGF 240500
TAFFAR
TAF
KFAR 240536Z 2406/2506 33020KT 3SM -SN BR OVC016
      TEMPO 2406/2410 P6SM NSW OVC024
     FM241200 34023G30KT P6SM OVC025
     FM242300 33013KT P6SM SCT025=

USA.gov is the U.S. government's official web portal to all federal, state and local government web resources and services.